SEZ - Sedona

Pirep is a free, collaborative database of all public and private airports located within the United States. All pilots are welcome to contribute, edit, and improve any airport they have local knowledge about, no registration required.
Uploaded photos will be licensed under a CC BY-SA 4.0 license. Please only upload photos you have the rights to use.
Tags
Public
Food
Lodging
METAR / TAF
Edit Tags
Camping
Car Rental
Bicycles
Swimming
Golfing
Fishing
Hot Springs
Museum
Flying Clubs
Airpark
Upcoming Events
No upcoming events. Is anything happening here soon?
*
*
*

Where exactly on/near the airport is this event taking place?

Is there a webpage with more information for this event?

Who should be contacted for more information?

What is this event all about?

Repeat every
Description
Last updated: 2023-05-09 22:37:17 MST
Transient Parking
Fuel Location
Landing & Tie-down Fees
Crew Car Availability
Flying Clubs
WiFi Access
Airport Statistics
Location: Sedona, AZ
Elevation: 4,830ft
Sectional: Phoenix
Activation date: May 1956
Fuel: 100LL, A (prices)
Runway 03/21: 5,132ft
Runway H1: 50ft
Access: Open to the public
Current Weather — VFR
  • Weather data is strictly informational and not for flight planning purposes.
  • METAR
    2024-05-30 01:15:00 MST
    Ceiling Wind Temperature Dewpoint Weather Visbility
    Sky clear 20° @ 6kt 66°F 21°F N/A 10SM
    Raw: KSEZ 300815Z AUTO 02006KT 10SM CLR 19/M06 A3008 RMK AO2
  • TAF
    2024-05-29 23:00:00 MST – 2024-05-30 00:00:00 MST
    Ceiling Wind Weather Visbility
    Sky clear Variable N/A 6SM
    Clouds: @ ft
    Raw: KSEZ 300520Z 3006/3106 VRB06KT P6SM SKC FM300700 03010KT P6SM SKC FM301600 VRB06KT P6SM FEW120 FM302200 20008G16KT P6SM FEW120 FM310200 VRB04KT P6SM FEW120
  • TAF
    2024-05-30 00:00:00 MST – 2024-05-30 09:00:00 MST
    Ceiling Wind Weather Visbility
    Sky clear 30° @ 10kt N/A 6SM
    Clouds: @ ft
    Raw: KSEZ 300520Z 3006/3106 VRB06KT P6SM SKC FM300700 03010KT P6SM SKC FM301600 VRB06KT P6SM FEW120 FM302200 20008G16KT P6SM FEW120 FM310200 VRB04KT P6SM FEW120
  • TAF
    2024-05-30 09:00:00 MST – 2024-05-30 15:00:00 MST
    Ceiling Wind Weather Visbility
    Sky clear Variable N/A 6SM
    Clouds: Few @ 12,000ft
    Raw: KSEZ 300520Z 3006/3106 VRB06KT P6SM SKC FM300700 03010KT P6SM SKC FM301600 VRB06KT P6SM FEW120 FM302200 20008G16KT P6SM FEW120 FM310200 VRB04KT P6SM FEW120
  • TAF
    2024-05-30 15:00:00 MST – 2024-05-30 19:00:00 MST
    Ceiling Wind Weather Visbility
    Sky clear 200° @ 8kt, gusts 16kt N/A 6SM
    Clouds: Few @ 12,000ft
    Raw: KSEZ 300520Z 3006/3106 VRB06KT P6SM SKC FM300700 03010KT P6SM SKC FM301600 VRB06KT P6SM FEW120 FM302200 20008G16KT P6SM FEW120 FM310200 VRB04KT P6SM FEW120
  • TAF
    2024-05-30 19:00:00 MST – 2024-05-30 23:00:00 MST
    Ceiling Wind Weather Visbility
    Sky clear Variable N/A 6SM
    Clouds: Few @ 12,000ft
    Raw: KSEZ 300520Z 3006/3106 VRB06KT P6SM SKC FM300700 03010KT P6SM SKC FM301600 VRB06KT P6SM FEW120 FM302200 20008G16KT P6SM FEW120 FM310200 VRB04KT P6SM FEW120
Click/tap to add an annotation marker to the map
Airport Webcams
No webcams added yet.
Direct links to live image URLs will be displayed inline on this page. URLs to separate webpages will be linked to.
URL:
Direct links to live image URLs will be displayed inline on this page. URLs to separate webpages will be linked to.
URL:
Remarks
  • Arpt on 500 ft mesa.
  • Lndg fee for turbine acft wo fuel purchase. overnight tsnt fee.
  • Hop fm heli s & w of rwy; hop rstrd to heli adj to twy intxn a7 sw main trml bldg.
  • Noise abatement proc in efct; scenic flt blw 6500 ft msl na.
  • Turb & wildlife on & invof arpt.
  • Actvt reil rwy 03 & 21; papi rwy 03 & 21; mirl rwy 03/21 - ctaf.
  • Tpa for propeller acft 1173 agl, jet acft 2173 agl.
  • Call prior - 928-282-1046.
Comments
Leave a comment What was your experience like at this airport?